ilmateenistus.ee keskkonnaagentuur.ee
EETN Tallinna lennuväli
FTEO31 EETN 220500
TAF EETN 220508Z 2206/2306 10006KT CAVOK BECMG 2208/2210 04010KT
    TEMPO 2211/2216 SCT030CB PROB40 TEMPO 2211/2215 VRB15KT TSRA BECMG
    2218/2220 VRB02KT PROB40 TEMPO 2218/2304 1500 BR BKN004=

METAR EETN 220820Z 05006KT 360V090 CAVOK 23/11 Q1009 NOSIG=
Tallinna lennuväli
EEKA Kärdla lennuväli
FCEO32 EETN 220300 AAA
TAF AMD EEKA 220700Z 2204/2210 CNL=

METAR EEKA 220750Z 34005KT CAVOK 16/12 Q1009=
Kärdla lennuväli
EEKE Kuressaare lennuväli
FCEO32 EETN 220500
TAF EEKE 220500Z 2206/2212 09007KT CAVOK TEMPO 2206/2212 SCT030CB
    SCT040 TEMPO 2209 /2212 VRB20KT 4000 TSRA=

METAR EEKE 220750Z 15006KT CAVOK 21/14 Q1008=
Kuressaare lennuväli
EEPU Pärnu lennuväli
METAR EEPU 220750Z 04006KT 360V060 CAVOK 24/15 Q1008=
Pärnu lennuväli
EETU Tartu lennuväli
FCEO32 EETN 220200 AAA
TAF AMD EETU 220600Z 2203/2209 CNL=

METAR EETU 220820Z AUTO VRB04KT 9999 NCD 23/14 Q1009=
Tartu lennuväli
EEEI Ämari lennuväli
METAR EEEI 220750Z 36004KT 290V070 CAVOK 23/13 Q1009 NOSIG=
Ämari lennuväli